Time;durP1;ratioP1;P1;durP2;ratioP2;P2;SDS_P1;SDS_P2;PMS_P1;PMS_P2;Temp;Humidity;BMP_temperature;BMP_pressure;BME280_temperature;BME280_humidity;BME280_pressure;Samples;Min_cycle;Max_cycle;Signal;HPM_P1;HPM_P2
2021/04/13 00:02:19;;;;;;;1.27;0.77;;;;;;;7.72;61.35;93604.22;5039492;28;20040;-43
2021/04/13 00:04:46;;;;;;;1.15;1.15;;;;;;;7.72;61.15;93606.22;5072201;28;20505;-43
2021/04/13 00:07:12;;;;;;;0.57;0.55;;;;;;;7.75;61.12;93592.19;5072336;28;20024;-43
2021/04/13 00:09:39;;;;;;;0.43;0.43;;;;;;;7.91;62.15;93604.88;5072375;28;20035;-44
2021/04/13 00:12:20;;;;;;;0.70;0.70;;;;;;;7.89;61.79;93606.66;5072072;28;20508;-44
2021/04/13 00:14:50;;;;;;;0.35;0.35;;;;;;;7.75;61.79;93605.16;5070660;28;20025;-42
2021/04/13 00:17:19;;;;;;;1.05;1.02;;;;;;;8.02;60.78;93609.41;5072352;28;20071;-40
2021/04/13 00:20:01;;;;;;;0.63;0.63;;;;;;;7.92;61.15;93602.88;5072297;28;20028;-44
2021/04/13 00:22:27;;;;;;;1.60;1.30;;;;;;;7.75;61.02;93567.44;5072268;28;20020;-42
2021/04/13 00:24:54;;;;;;;0.50;0.50;;;;;;;8.02;60.64;93603.91;5070515;28;20029;-43
2021/04/13 00:27:22;;;;;;;0.85;0.85;;;;;;;7.95;61.35;93599.06;5070813;28;20028;-41
2021/04/13 00:29:48;;;;;;;1.48;1.38;;;;;;;8.09;61.60;93592.28;5079096;28;20146;-42
2021/04/13 00:32:13;;;;;;;1.33;1.25;;;;;;;8.08;60.60;93593.53;5091582;28;20114;-43
2021/04/13 00:37:24;;;;;;;7.63;3.13;;;;;;;7.95;60.45;93585.31;5091933;28;20016;-42
2021/04/13 00:39:55;;;;;;;1.35;1.35;;;;;;;7.88;60.92;93588.69;5088427;28;20165;-43
2021/04/13 00:42:32;;;;;;;0.85;0.65;;;;;;;7.59;61.56;93571.97;5088364;28;20042;-43
2021/04/13 00:45:05;;;;;;;0.88;0.88;;;;;;;7.48;62.28;93563.91;5089626;28;20464;-42
2021/04/13 00:47:33;;;;;;;2.72;2.53;;;;;;;7.67;62.26;93569.31;5087789;28;20024;-42
2021/04/13 00:50:04;;;;;;;2.30;2.20;;;;;;;7.78;62.79;93571.88;5087655;28;20036;-42
2021/04/13 00:52:36;;;;;;;1.42;1.23;;;;;;;7.84;61.65;93567.00;5088250;28;20089;-43
2021/04/13 00:55:07;;;;;;;5.57;1.38;;;;;;;8.05;61.28;93578.13;5089152;28;20058;-42
2021/04/13 00:57:44;;;;;;;1.58;1.48;;;;;;;7.86;60.71;93558.25;5088340;28;20020;-43
2021/04/13 01:00:25;;;;;;;1.35;1.25;;;;;;;8.01;60.59;93574.97;5088651;28;20095;-44
2021/04/13 01:02:56;;;;;;;1.55;1.48;;;;;;;7.89;60.61;93576.41;5088086;28;20056;-44
2021/04/13 01:05:22;;;;;;;2.65;2.45;;;;;;;7.88;60.81;93575.69;5089479;28;20121;-44
2021/04/13 01:07:52;;;;;;;1.90;1.80;;;;;;;7.38;61.78;93581.31;5089511;28;20516;-45
2021/04/13 01:10:27;;;;;;;0.73;0.73;;;;;;;7.36;62.31;93579.09;5088265;28;20043;-43
2021/04/13 01:13:03;;;;;;;0.93;0.85;;;;;;;7.11;63.07;93588.75;5087825;28;20618;-43
2021/04/13 01:15:29;;;;;;;0.50;0.50;;;;;;;7.02;63.21;93588.41;5087487;28;20032;-46
2021/04/13 01:17:54;;;;;;;1.80;1.08;;;;;;;7.22;63.00;93591.31;5074612;28;20417;-47
2021/04/13 01:20:33;;;;;;;0.60;0.60;;;;;;;7.11;63.42;93599.72;5068779;28;20036;-48
2021/04/13 01:23:04;;;;;;;;;;;;;;;7.10;63.94;93611.22;5067590;28;20436;-44
2021/04/13 01:25:35;;;;;;;0.50;0.50;;;;;;;7.36;64.24;93614.06;5067220;28;19916;-44
2021/04/13 01:28:10;;;;;;;1.95;1.85;;;;;;;7.55;61.97;93615.50;5068683;28;20044;-42
2021/04/13 01:30:45;;;;;;;2.67;1.88;;;;;;;7.49;62.11;93619.59;5066835;28;20067;-44
2021/04/13 01:33:21;;;;;;;0.65;0.65;;;;;;;7.04;63.85;93613.31;5068590;28;20050;-44
2021/04/13 01:35:52;;;;;;;2.40;1.00;;;;;;;6.87;64.64;93617.03;5071105;28;20024;-43
2021/04/13 01:43:22;;;;;;;0.57;0.57;;;;;;;7.37;64.59;93624.53;5087559;28;20074;-42
2021/04/13 01:45:50;;;;;;;0.85;0.85;;;;;;;7.37;63.48;93632.03;5087581;28;20083;-44
2021/04/13 01:48:16;;;;;;;9.80;3.78;;;;;;;7.25;63.51;93636.97;5070757;28;20028;-43
2021/04/13 01:50:44;;;;;;;1.50;1.23;;;;;;;7.43;62.06;93638.16;5068658;28;20081;-42
2021/04/13 01:53:13;;;;;;;0.98;0.98;;;;;;;7.64;61.48;93630.84;5067217;28;20036;-43
2021/04/13 01:55:51;;;;;;;4.60;1.10;;;;;;;7.41;62.52;93627.72;5066963;28;20036;-43
2021/04/13 01:58:19;;;;;;;1.08;1.08;;;;;;;7.44;62.50;93623.91;5068388;28;20274;-42
2021/04/13 02:00:50;;;;;;;1.33;1.23;;;;;;;7.52;62.71;93619.28;5074193;28;20097;-43
2021/04/13 02:03:40;;;;;;;9.13;1.40;;;;;;;7.65;63.27;93621.31;5073788;28;20298;-43
2021/04/13 02:06:15;;;;;;;0.63;0.57;;;;;;;7.83;62.20;93617.00;5082165;28;20520;-44
2021/04/13 02:08:51;;;;;;;3.92;1.77;;;;;;;7.82;61.19;93613.53;5092918;28;20043;-44
2021/04/13 02:11:24;;;;;;;1.27;1.27;;;;;;;8.02;60.60;93609.41;5091755;28;20051;-44
2021/04/13 02:13:55;;;;;;;1.85;1.67;;;;;;;8.05;60.54;93605.63;5094696;28;20542;-43
2021/04/13 02:16:37;;;;;;;0.52;0.52;;;;;;;7.99;61.72;93613.94;5093436;28;20027;-42
2021/04/13 02:19:06;;;;;;;1.63;1.52;;;;;;;7.75;61.77;93616.16;5091142;28;20668;-42
2021/04/13 02:21:39;;;;;;;1.70;1.60;;;;;;;7.39;63.10;93604.78;5093571;28;20753;-43
2021/04/13 02:24:17;;;;;;;0.30;0.30;;;;;;;7.34;63.05;93609.09;5083592;28;20044;-42
2021/04/13 02:26:51;;;;;;;1.10;1.10;;;;;;;7.17;64.10;93600.38;5081750;28;20080;-42
2021/04/13 02:29:19;;;;;;;0.52;0.52;;;;;;;6.96;65.49;93574.75;5084015;28;20467;-44
2021/04/13 02:31:55;;;;;;;0.30;0.30;;;;;;;7.34;65.35;93591.88;5084092;28;20025;-44
2021/04/13 02:34:45;;;;;;;1.98;1.08;;;;;;;7.60;64.35;93587.16;5083884;28;20098;-42
2021/04/13 02:37:25;;;;;;;2.90;2.13;;;;;;;7.76;63.61;93590.91;5081554;28;20106;-42
2021/04/13 02:39:52;;;;;;;1.92;1.05;;;;;;;7.93;62.72;93591.31;5092067;28;20488;-42
2021/04/13 02:42:22;;;;;;;0.95;0.95;;;;;;;7.96;62.68;93582.03;5075557;28;20032;-42
2021/04/13 02:44:59;;;;;;;2.75;1.13;;;;;;;7.99;61.67;93578.22;5075159;28;20032;-42
2021/04/13 02:47:26;;;;;;;1.50;1.30;;;;;;;8.16;61.38;93583.41;5075808;28;20063;-42
2021/04/13 02:49:52;;;;;;;1.92;0.85;;;;;;;8.05;61.43;93565.13;5074732;28;20016;-45
2021/04/13 02:52:21;;;;;;;1.77;1.67;;;;;;;7.96;62.55;93573.78;5074532;28;20031;-48
2021/04/13 02:54:53;;;;;;;0.60;0.60;;;;;;;7.67;62.91;93577.56;5074940;28;20048;-45
2021/04/13 02:57:38;;;;;;;1.10;1.10;;;;;;;7.65;63.77;93575.34;5074856;28;20031;-45
2021/04/13 03:00:07;;;;;;;0.50;0.50;;;;;;;7.84;62.69;93580.75;5075680;28;20041;-46
2021/04/13 03:02:42;;;;;;;1.30;0.80;;;;;;;7.73;63.50;93583.72;5074294;28;20025;-44
2021/04/13 03:05:08;;;;;;;1.10;1.00;;;;;;;7.71;62.56;93582.75;5075906;28;20077;-43
2021/04/13 03:07:37;;;;;;;0.80;0.80;;;;;;;7.93;61.81;93585.09;5074390;28;20035;-42
2021/04/13 03:10:07;;;;;;;0.98;0.60;;;;;;;7.90;61.98;93583.41;5074641;28;20024;-42
2021/04/13 03:12:37;;;;;;;0.82;0.82;;;;;;;7.61;62.54;93580.41;5071962;28;20131;-43
2021/04/13 03:15:05;;;;;;;0.45;0.45;;;;;;;7.68;63.15;93592.78;5071446;28;20032;-42
2021/04/13 03:17:31;;;;;;;0.90;0.90;;;;;;;7.59;63.44;93591.19;5072696;28;20107;-43
2021/04/13 03:20:09;;;;;;;1.30;1.05;;;;;;;7.59;63.52;93596.69;5070775;28;20086;-43
2021/04/13 03:22:37;;;;;;;0.43;0.43;;;;;;;7.52;63.67;93591.81;5072679;28;20034;-42
2021/04/13 03:25:08;;;;;;;0.45;0.45;;;;;;;7.38;64.34;93593.06;5071251;28;20108;-42
2021/04/13 03:27:35;;;;;;;0.73;0.73;;;;;;;7.42;63.95;93593.50;5070818;28;20039;-42
2021/04/13 03:30:14;;;;;;;1.48;1.38;;;;;;;7.48;64.10;93599.63;5081215;28;20031;-43
2021/04/13 03:33:01;;;;;;;2.97;2.78;;;;;;;7.65;63.56;93597.34;5091255;28;20550;-44
2021/04/13 03:35:28;;;;;;;4.32;4.07;;;;;;;7.62;63.63;93600.41;5091276;28;20040;-45
2021/04/13 03:37:55;;;;;;;5.40;4.18;;;;;;;7.75;62.95;93596.94;5092674;28;20024;-43
2021/04/13 03:40:23;;;;;;;3.15;2.95;;;;;;;7.64;62.29;93593.09;5092057;28;20036;-45
2021/04/13 03:42:59;;;;;;;2.60;2.40;;;;;;;7.62;62.59;93603.88;5092260;28;20028;-45
2021/04/13 03:45:27;;;;;;;2.53;2.38;;;;;;;7.53;63.47;93609.78;5091057;28;20356;-44
2021/04/13 03:47:53;;;;;;;2.00;1.55;;;;;;;7.57;63.48;93607.47;5092154;28;20429;-47
2021/04/13 03:50:24;;;;;;;2.38;2.25;;;;;;;7.53;63.30;93607.03;5092209;28;20032;-41
2021/04/13 03:53:05;;;;;;;2.83;1.88;;;;;;;7.54;64.22;93597.53;5091110;28;20030;-43
2021/04/13 03:55:31;;;;;;;1.65;1.52;;;;;;;7.67;63.69;93612.56;5092322;28;20089;-43
2021/04/13 03:57:56;;;;;;;6.32;2.75;;;;;;;7.72;63.66;93620.69;5090642;28;20446;-44
2021/04/13 04:00:26;;;;;;;2.72;1.65;;;;;;;7.86;63.31;93621.47;5092069;28;20043;-44
2021/04/13 04:02:51;;;;;;;0.95;0.88;;;;;;;7.71;63.01;93610.97;5090652;28;20047;-44
2021/04/13 04:05:21;;;;;;;9.43;4.20;;;;;;;7.54;63.84;93627.00;5091632;28;20464;-46
2021/04/13 04:07:52;;;;;;;1.90;1.80;;;;;;;7.76;63.49;93631.38;5091962;28;20024;-44
2021/04/13 04:10:35;;;;;;;2.25;2.15;;;;;;;7.68;62.98;93634.00;5090782;28;20455;-45
2021/04/13 04:13:09;;;;;;;0.70;0.70;;;;;;;7.31;63.90;93637.63;5091858;28;20114;-46
2021/04/13 04:15:49;;;;;;;1.85;1.40;;;;;;;7.62;63.95;93638.88;5090319;28;20035;-48
2021/04/13 04:18:26;;;;;;;3.88;3.60;;;;;;;7.43;63.69;93635.41;5091574;28;20035;-45
2021/04/13 04:20:52;;;;;;;2.90;2.63;;;;;;;7.34;64.02;93616.59;5090582;28;20508;-48
2021/04/13 04:23:27;;;;;;;1.80;1.70;;;;;;;7.53;64.20;93623.53;5089215;28;20099;-45
2021/04/13 04:25:57;;;;;;;3.78;3.00;;;;;;;7.49;64.51;93634.06;5090156;28;20035;-45
2021/04/13 04:28:35;;;;;;;3.95;3.50;;;;;;;7.42;65.77;93620.97;5091681;28;20027;-46
2021/04/13 04:31:36;;;;;;;2.28;2.08;;;;;;;7.76;65.44;93623.88;5071205;28;20111;-46
2021/04/13 04:34:14;;;;;;;2.30;2.17;;;;;;;7.93;64.52;93623.56;5057184;28;20047;-47
2021/04/13 04:36:41;;;;;;;3.53;3.25;;;;;;;7.97;64.84;93624.75;5070810;28;20039;-45
2021/04/13 04:39:45;;;;;;;3.25;3.03;;;;;;;8.02;63.80;93620.41;5069817;28;20482;-43
2021/04/13 04:42:28;;;;;;;3.08;2.90;;;;;;;8.20;63.21;93617.56;4972951;28;20093;-44
2021/04/13 04:45:13;;;;;;;4.00;3.67;;;;;;;8.31;63.07;93611.91;4989384;28;20110;-45
2021/04/13 04:47:40;;;;;;;3.10;2.92;;;;;;;8.43;62.09;93603.38;5047090;28;20068;-44
2021/04/13 04:50:07;;;;;;;5.75;3.70;;;;;;;8.58;62.10;93604.31;5070919;28;20032;-45
2021/04/13 04:52:33;;;;;;;18.58;8.88;;;;;;;8.65;62.25;93603.69;5070799;28;20028;-44
2021/04/13 04:54:58;;;;;;;7.32;6.72;;;;;;;8.74;61.19;93597.75;5070830;28;20047;-45
2021/04/13 04:57:24;;;;;;;4.85;4.45;;;;;;;8.70;61.30;93600.09;5070607;28;20413;-45
2021/04/13 04:59:50;;;;;;;7.28;3.13;;;;;;;8.75;61.25;93593.69;5070356;28;20421;-46
2021/04/13 05:02:15;;;;;;;2.50;2.35;;;;;;;8.88;60.55;93592.94;5070617;28;20042;-44
2021/04/13 05:04:41;;;;;;;3.97;3.67;;;;;;;8.95;60.82;93597.78;5070231;28;20163;-44
2021/04/13 05:07:07;;;;;;;2.80;2.60;;;;;;;9.10;60.09;93600.69;5070408;28;20032;-43
2021/04/13 05:09:32;;;;;;;2.13;1.98;;;;;;;9.20;60.02;93598.22;5070074;28;20440;-44
2021/04/13 05:11:57;;;;;;;2.83;2.67;;;;;;;9.22;61.24;93601.94;5070282;28;20032;-43
2021/04/13 05:14:23;;;;;;;3.70;3.50;;;;;;;9.26;60.39;93601.59;5070080;28;20032;-45
2021/04/13 05:16:49;;;;;;;3.72;3.40;;;;;;;8.93;60.94;93597.56;5070402;28;20048;-46
2021/04/13 05:19:15;;;;;;;6.63;6.05;;;;;;;9.05;61.10;93596.78;5070010;28;20021;-44
2021/04/13 05:21:40;;;;;;;5.93;4.75;;;;;;;9.15;61.15;93602.59;5070095;28;20032;-44
2021/04/13 05:24:06;;;;;;;2.85;2.65;;;;;;;9.06;61.83;93601.03;5069889;28;20030;-43
2021/04/13 05:26:32;;;;;;;7.15;4.18;;;;;;;9.02;61.81;93597.88;5070078;28;20111;-43
2021/04/13 05:28:57;;;;;;;3.47;3.22;;;;;;;9.22;62.57;93612.94;5070555;28;20145;-43
2021/04/13 05:31:23;;;;;;;4.55;4.20;;;;;;;9.35;62.68;93607.38;5088086;28;20067;-43
2021/04/13 05:45:47;;;;;;;13.35;3.00;;;;;;;10.56;61.11;93597.97;5126515;27;20350;-44
2021/04/13 05:48:13;;;;;;;4.95;2.25;;;;;;;10.52;61.20;93603.13;5104744;28;20434;-44
2021/04/13 05:50:41;;;;;;;1.85;1.75;;;;;;;10.57;61.28;93604.22;5106089;28;20020;-45
2021/04/13 05:53:06;;;;;;;1.92;1.80;;;;;;;10.64;60.38;93601.50;5105297;28;20066;-46
2021/04/13 05:55:32;;;;;;;0.90;0.90;;;;;;;10.66;60.13;93601.69;5105487;28;20066;-45
2021/04/13 05:58:04;;;;;;;0.93;0.93;;;;;;;10.72;59.50;93604.28;5105909;28;20030;-44
2021/04/13 06:00:30;;;;;;;0.80;0.80;;;;;;;10.81;60.68;93601.00;5105620;28;20110;-46
2021/04/13 06:02:56;;;;;;;3.33;1.70;;;;;;;10.78;60.31;93593.84;5103095;28;20150;-45
2021/04/13 06:05:25;;;;;;;1.00;0.80;;;;;;;10.89;59.57;93595.53;5086975;28;20035;-46
2021/04/13 06:07:51;;;;;;;1.92;1.30;;;;;;;10.92;59.58;93586.13;5091734;28;20020;-46
2021/04/13 06:10:16;;;;;;;1.35;1.13;;;;;;;10.84;61.56;93588.13;5094872;28;20484;-45
2021/04/13 06:12:42;;;;;;;1.17;1.13;;;;;;;10.95;60.78;93593.34;5105928;28;20028;-45
2021/04/13 06:15:12;;;;;;;2.47;2.35;;;;;;;10.94;60.81;93598.13;5105311;28;20039;-46
2021/04/13 06:17:38;;;;;;;1.50;1.40;;;;;;;11.01;61.50;93591.88;5105276;28;20066;-45
2021/04/13 06:20:04;;;;;;;2.15;1.45;;;;;;;10.98;62.70;93589.50;5105287;28;20032;-47
2021/04/13 06:22:30;;;;;;;3.35;2.53;;;;;;;10.91;64.45;93579.16;5105824;28;20027;-46
2021/04/13 06:24:55;;;;;;;2.83;2.30;;;;;;;10.83;65.30;93581.16;5105764;28;20016;-46
2021/04/13 06:27:21;;;;;;;0.60;0.60;;;;;;;10.83;65.68;93573.59;5105256;28;20160;-46
2021/04/13 06:29:46;;;;;;;3.70;3.40;;;;;;;10.90;65.57;93578.41;5102906;28;20028;-46
2021/04/13 06:32:11;;;;;;;5.57;4.68;;;;;;;10.69;66.96;93577.78;5088384;28;20016;-45
2021/04/13 06:34:37;;;;;;;7.07;6.45;;;;;;;10.79;66.85;93575.97;5105157;28;20476;-45
2021/04/13 06:37:05;;;;;;;2.97;2.33;;;;;;;10.71;67.39;93585.50;5105287;28;20031;-45
2021/04/13 06:39:32;;;;;;;9.80;5.13;;;;;;;10.68;67.82;93583.84;5090802;28;20020;-45
2021/04/13 06:42:02;;;;;;;6.28;5.65;;;;;;;10.75;67.99;93577.59;5087103;28;20415;-44
2021/04/13 06:44:53;;;;;;;5.10;4.78;;;;;;;10.79;67.90;93569.69;5091704;28;20133;-45
2021/04/13 06:47:28;;;;;;;2.25;2.15;;;;;;;10.77;69.00;93564.00;5071226;28;20043;-46
2021/04/13 06:50:17;;;;;;;2.60;2.45;;;;;;;10.68;70.30;93559.72;5070199;28;20087;-46
2021/04/13 06:52:59;;;;;;;3.70;3.40;;;;;;;10.82;69.71;93560.34;5069839;28;20505;-46
2021/04/13 06:56:02;;;;;;;5.00;4.30;;;;;;;10.96;68.50;93561.69;5068598;28;20059;-46
2021/04/13 06:58:49;;;;;;;3.75;3.45;;;;;;;10.84;69.39;93566.78;5070674;28;20099;-45
2021/04/13 07:01:34;;;;;;;2.90;2.70;;;;;;;10.80;69.42;93554.63;5071010;28;20120;-46
2021/04/13 07:04:28;;;;;;;1.40;1.38;;;;;;;10.81;68.69;93551.31;5070923;28;20048;-46
2021/04/13 07:07:05;;;;;;;0.65;0.65;;;;;;;10.82;68.15;93544.50;5083864;28;20077;-46
2021/04/13 07:09:49;;;;;;;3.72;2.70;;;;;;;10.80;68.48;93551.84;5089741;28;20024;-46
2021/04/13 07:12:28;;;;;;;1.55;1.45;;;;;;;10.86;68.12;93544.13;5080092;28;20030;-45
2021/04/13 07:15:20;;;;;;;0.77;0.77;;;;;;;11.06;67.20;93543.28;5080248;28;20496;-46
2021/04/13 07:17:48;;;;;;;2.05;1.10;;;;;;;11.04;67.98;93535.53;5078624;28;20106;-46
2021/04/13 07:20:18;;;;;;;0.85;0.85;;;;;;;11.13;68.02;93539.78;5079771;28;20031;-47
2021/04/13 07:22:53;;;;;;;1.20;1.10;;;;;;;11.20;67.32;93531.50;5089278;28;20027;-45
2021/04/13 07:25:25;;;;;;;2.15;2.03;;;;;;;11.30;67.41;93528.94;5090378;28;20488;-45
2021/04/13 07:28:12;;;;;;;4.22;1.80;;;;;;;11.21;68.44;93518.44;5090802;28;20403;-46
2021/04/13 07:30:54;;;;;;;2.35;2.15;;;;;;;10.57;70.57;93502.06;5090564;28;20032;-48
2021/04/13 07:33:24;;;;;;;1.52;1.40;;;;;;;10.07;72.53;93486.94;5088960;28;20085;-44
2021/04/13 07:35:50;;;;;;;6.80;1.55;;;;;;;9.65;73.46;93469.06;5090674;28;20047;-46
2021/04/13 07:38:25;;;;;;;1.52;1.45;;;;;;;9.69;74.85;93466.69;5087393;28;20034;-46
2021/04/13 07:40:58;;;;;;;12.35;6.13;;;;;;;9.79;75.11;93457.38;5090294;28;20088;-45
2021/04/13 07:43:36;;;;;;;1.80;1.70;;;;;;;9.75;75.61;93465.28;5072646;28;20027;-47
2021/04/13 07:46:26;;;;;;;3.67;3.40;;;;;;;9.68;75.57;93474.22;5070437;28;20032;-46
2021/04/13 07:49:15;;;;;;;15.45;3.42;;;;;;;9.81;75.01;93476.16;5070248;28;20036;-46
2021/04/13 07:51:46;;;;;;;;;;;;;;;9.88;75.25;93473.44;5069321;28;20071;-46
2021/04/13 07:54:38;;;;;;;1.45;1.35;;;;;;;9.94;74.75;93468.50;5069613;28;20022;-47
2021/04/13 07:57:32;;;;;;;0.98;0.90;;;;;;;10.06;74.74;93454.38;5067709;28;20040;-45
2021/04/13 08:00:06;;;;;;;2.40;2.30;;;;;;;10.11;75.61;93468.06;5065874;28;20043;-47
2021/04/13 08:02:31;;;;;;;3.13;1.08;;;;;;;10.31;74.32;93461.69;5069451;28;20553;-49
2021/04/13 08:04:58;;;;;;;2.30;2.10;;;;;;;10.52;75.45;93458.81;5069911;28;20028;-47
2021/04/13 08:07:28;;;;;;;2.00;1.90;;;;;;;10.63;75.92;93475.78;5070037;28;20028;-47
2021/04/13 08:09:53;;;;;;;2.40;2.15;;;;;;;10.63;75.67;93467.47;5069057;28;20028;-47
2021/04/13 08:12:50;;;;;;;6.53;2.35;;;;;;;10.44;76.25;93464.31;5069851;28;20540;-49
2021/04/13 08:15:17;;;;;;;0.73;0.73;;;;;;;10.38;76.28;93449.19;5068316;28;20600;-48
2021/04/13 08:18:01;;;;;;;1.80;1.73;;;;;;;10.42;76.40;93435.78;5086860;28;20034;-48
2021/04/13 08:20:33;;;;;;;9.65;2.83;;;;;;;10.72;77.34;93435.13;5090565;28;20039;-48
2021/04/13 08:23:03;;;;;;;3.92;3.53;;;;;;;11.07;77.28;93436.97;5092133;28;20397;-48
2021/04/13 08:25:28;;;;;;;2.97;2.47;;;;;;;11.50;74.04;93428.47;5091961;28;20024;-48
2021/04/13 08:28:02;;;;;;;2.97;2.65;;;;;;;11.87;74.50;93426.94;5091983;28;20036;-48
2021/04/13 08:30:30;;;;;;;2.50;2.30;;;;;;;12.36;74.10;93429.19;5092059;28;20028;-49
2021/04/13 08:33:10;;;;;;;6.43;5.95;;;;;;;12.87;72.77;93426.66;5091843;28;20031;-50
2021/04/13 08:35:46;;;;;;;3.85;2.78;;;;;;;13.33;71.48;93419.53;5091502;28;20120;-50
2021/04/13 08:38:44;;;;;;;1.85;1.75;;;;;;;13.91;69.00;93426.34;5090338;28;20031;-49
2021/04/13 08:41:36;;;;;;;0.77;0.77;;;;;;;14.05;68.19;93407.34;5091519;28;20575;-47
2021/04/13 08:44:32;;;;;;;3.50;2.88;;;;;;;14.36;69.27;93422.34;5071099;28;20041;-49
2021/04/13 08:47:01;;;;;;;1.17;1.15;;;;;;;14.94;65.52;93429.72;5086518;28;20396;-51
2021/04/13 08:49:41;;;;;;;0.80;0.80;;;;;;;15.18;64.07;93430.88;5070991;28;20481;-50
2021/04/13 08:52:31;;;;;;;0.98;0.65;;;;;;;15.45;63.07;93426.00;5071283;28;20032;-50
2021/04/13 08:55:13;;;;;;;1.23;1.13;;;;;;;15.69;63.45;93433.41;5071232;28;20028;-48
2021/04/13 08:57:45;;;;;;;0.50;0.50;;;;;;;16.22;63.05;93432.41;5070940;28;20048;-49
2021/04/13 09:00:32;;;;;;;0.57;0.57;;;;;;;16.93;56.53;93429.16;5071238;28;20095;-48
2021/04/13 09:03:00;;;;;;;0.20;0.20;;;;;;;17.18;55.47;93415.56;5071170;28;20017;-45
2021/04/13 09:05:31;;;;;;;6.30;1.38;;;;;;;17.54;55.00;93431.31;5073854;28;20432;-50
2021/04/13 09:08:07;;;;;;;1.30;1.10;;;;;;;17.11;56.59;93433.19;5090851;28;20514;-46
2021/04/13 09:10:36;;;;;;;0.50;0.50;;;;;;;17.34;55.54;93439.00;5089779;28;20544;-45
2021/04/13 09:13:22;;;;;;;1.35;0.95;;;;;;;17.03;53.98;93443.78;5091224;28;20416;-45
2021/04/13 09:16:16;;;;;;;0.40;0.40;;;;;;;16.56;54.67;93437.72;5088056;28;20027;-46
2021/04/13 09:18:44;;;;;;;1.30;1.20;;;;;;;16.30;54.00;93429.50;5090470;28;20079;-46
2021/04/13 09:21:45;;;;;;;0.77;0.70;;;;;;;16.30;52.76;93433.03;5090586;28;20024;-48
2021/04/13 09:24:25;;;;;;;0.80;0.60;;;;;;;16.23;52.86;93436.69;5089843;28;20028;-48
2021/04/13 09:26:56;;;;;;;0.50;0.50;;;;;;;16.37;51.99;93440.47;5089582;28;20028;-46
2021/04/13 09:29:40;;;;;;;0.45;0.45;;;;;;;16.50;52.90;93442.84;5091004;28;20036;-48
2021/04/13 09:32:26;;;;;;;1.30;1.20;;;;;;;16.68;53.28;93440.63;5090803;28;20038;-48
2021/04/13 09:35:16;;;;;;;0.38;0.38;;;;;;;16.70;50.64;93434.50;5076414;28;20119;-48
2021/04/13 09:38:17;;;;;;;1.38;1.10;;;;;;;16.58;52.42;93426.72;5091002;28;20054;-49
2021/04/13 09:41:01;;;;;;;0.35;0.35;;;;;;;16.76;49.26;93432.13;5089767;28;20095;-50
2021/04/13 09:44:04;;;;;;;0.77;0.70;;;;;;;16.35;49.25;93423.63;5090231;28;20024;-50
2021/04/13 09:47:02;;;;;;;0.95;0.95;;;;;;;16.35;50.50;93412.47;5045738;28;20551;-46
2021/04/13 09:49:47;;;;;;;0.30;0.30;;;;;;;16.50;52.62;93409.41;5089885;28;20044;-45
2021/04/13 09:52:54;;;;;;;4.55;1.73;;;;;;;16.57;50.04;93410.56;5090597;28;20587;-49
2021/04/13 09:55:44;;;;;;;0.55;0.55;;;;;;;16.59;50.47;93408.66;5061406;28;20068;-46
2021/04/13 09:58:30;;;;;;;2.25;0.75;;;;;;;16.65;49.51;93406.31;5070271;28;20078;-48
2021/04/13 10:01:13;;;;;;;1.90;1.02;;;;;;;16.80;50.38;93405.25;5070353;28;20028;-46
2021/04/13 10:03:50;;;;;;;0.50;0.50;;;;;;;17.02;48.84;93397.72;5069309;28;20051;-46
2021/04/13 10:06:25;;;;;;;0.55;0.55;;;;;;;17.17;49.99;93397.38;5069344;28;20506;-45
2021/04/13 10:08:56;;;;;;;0.40;0.40;;;;;;;16.96;50.62;93391.69;5069402;28;20024;-46
2021/04/13 10:11:40;;;;;;;17.02;10.45;;;;;;;17.01;50.59;93393.44;5069193;28;20454;-47
2021/04/13 10:14:30;;;;;;;0.40;0.20;;;;;;;17.00;50.68;93389.91;5070402;28;20066;-47
2021/04/13 10:17:18;;;;;;;10.23;2.58;;;;;;;16.90;49.88;93394.06;5069263;28;20718;-46
2021/04/13 10:20:34;;;;;;;14.25;1.13;;;;;;;16.67;50.82;93386.22;5070448;28;20067;-45
2021/04/13 10:23:05;;;;;;;1.27;1.02;;;;;;;16.54;51.26;93383.91;5046341;28;20457;-45
2021/04/13 10:26:25;;;;;;;4.95;2.15;;;;;;;16.39;51.99;93379.34;5070485;28;20554;-46
2021/04/13 10:29:06;;;;;;;1.27;1.20;;;;;;;16.31;52.00;93387.13;4989617;28;20499;-47
2021/04/13 10:32:06;;;;;;;0.73;0.55;;;;;;;16.22;50.86;93384.34;5062322;28;20044;-48
2021/04/13 10:35:09;;;;;;;1.30;1.25;;;;;;;16.11;52.52;93388.47;5040807;28;20071;-46
2021/04/13 10:37:57;;;;;;;2.22;0.93;;;;;;;15.90;54.63;93380.66;5077875;28;20036;-43
2021/04/13 10:40:53;;;;;;;3.08;2.38;;;;;;;15.72;55.21;93390.47;5090370;28;20028;-43
2021/04/13 10:43:56;;;;;;;1.33;1.23;;;;;;;15.74;54.80;93392.69;5086554;28;20040;-43
2021/04/13 10:46:34;;;;;;;1.35;0.88;;;;;;;15.49;54.91;93390.13;5071118;28;20146;-47
2021/04/13 10:49:04;;;;;;;1.45;1.10;;;;;;;15.52;53.24;93394.53;5079781;28;20032;-47
2021/04/13 10:51:48;;;;;;;0.28;0.28;;;;;;;15.34;54.17;93392.41;5077747;28;20036;-48
2021/04/13 10:54:19;;;;;;;1.05;1.05;;;;;;;15.31;54.90;93385.25;5085004;28;20031;-45
2021/04/13 10:57:09;;;;;;;1.23;1.23;;;;;;;15.45;55.22;93389.09;5084861;28;20121;-45
2021/04/13 10:59:59;;;;;;;0.50;0.50;;;;;;;15.44;54.98;93390.44;5074605;28;20420;-46
2021/04/13 11:02:46;;;;;;;1.75;1.38;;;;;;;15.65;55.16;93390.59;5070005;28;20417;-43
2021/04/13 11:05:17;;;;;;;3.75;1.48;;;;;;;15.76;53.86;93390.03;5071218;28;20442;-46
2021/04/13 11:08:19;;;;;;;4.82;4.43;;;;;;;15.87;53.15;93387.41;5089401;28;20105;-45
2021/04/13 11:11:22;;;;;;;0.75;0.75;;;;;;;15.75;54.53;93394.13;5090043;28;20035;-43
2021/04/13 11:14:09;;;;;;;0.82;0.82;;;;;;;15.90;55.09;93396.63;5089819;28;20032;-43
2021/04/13 11:16:59;;;;;;;1.75;1.35;;;;;;;15.77;56.54;93388.72;5089918;28;20032;-45
2021/04/13 11:20:03;;;;;;;1.58;1.40;;;;;;;15.42;56.74;93393.03;5090446;28;20032;-43
2021/04/13 11:23:06;;;;;;;26.70;10.88;;;;;;;15.55;57.61;93401.00;5090572;28;20028;-43
2021/04/13 11:25:40;;;;;;;3.22;1.98;;;;;;;15.70;57.54;93395.16;5090710;28;20066;-42
2021/04/13 11:29:05;;;;;;;4.47;3.72;;;;;;;15.35;58.67;93391.84;5090417;28;20089;-45
2021/04/13 11:32:09;;;;;;;2.10;0.90;;;;;;;15.45;59.89;93391.88;5011562;28;20864;-42
2021/04/13 11:34:46;;;;;;;2.15;1.92;;;;;;;15.45;59.40;93398.19;5006872;28;20431;-42
2021/04/13 11:37:25;;;;;;;0.88;0.80;;;;;;;15.39;60.64;93383.06;5064582;28;20037;-43
2021/04/13 11:40:05;;;;;;;1.02;1.00;;;;;;;15.33;59.82;93393.72;5070012;28;20101;-44
2021/04/13 11:42:33;;;;;;;0.95;0.95;;;;;;;15.35;60.62;93389.06;5078271;28;20036;-43
2021/04/13 11:45:48;;;;;;;1.48;1.10;;;;;;;15.40;60.35;93395.66;5088158;28;20052;-43
2021/04/13 11:48:45;;;;;;;0.38;0.38;;;;;;;14.98;59.80;93382.78;5071999;28;20036;-43
2021/04/13 11:51:23;;;;;;;1.27;1.27;;;;;;;15.05;61.51;93392.31;5089620;28;20027;-44
2021/04/13 11:53:51;;;;;;;0.57;0.57;;;;;;;14.95;61.90;93383.94;5088823;28;20028;-42
2021/04/13 11:56:22;;;;;;;0.70;0.70;;;;;;;14.85;63.30;93388.72;5078801;28;20031;-43
2021/04/13 11:59:21;;;;;;;0.50;0.50;;;;;;;14.95;62.34;93381.16;5086533;28;20114;-42
2021/04/13 12:01:49;;;;;;;1.55;1.45;;;;;;;15.04;63.48;93390.84;5035807;28;20106;-42
2021/04/13 12:04:17;;;;;;;0.73;0.73;;;;;;;14.91;63.66;93375.28;5067652;28;20025;-42
2021/04/13 12:06:52;;;;;;;0.68;0.68;;;;;;;14.93;63.97;93392.13;5068613;28;20025;-47
2021/04/13 12:09:37;;;;;;;0.40;0.40;;;;;;;14.72;64.79;93382.81;5069155;28;20036;-47
2021/04/13 12:12:05;;;;;;;0.50;0.50;;;;;;;14.57;66.05;93374.69;5071532;28;20112;-45
2021/04/13 12:14:38;;;;;;;2.53;1.63;;;;;;;14.84;66.25;93375.38;5087788;28;20094;-46
2021/04/13 12:17:10;;;;;;;1.10;1.00;;;;;;;14.95;66.24;93372.81;5089752;28;20032;-44
2021/04/13 12:19:36;;;;;;;0.80;0.68;;;;;;;14.92;66.55;93362.84;5089602;28;20507;-42
2021/04/13 12:22:32;;;;;;;0.38;0.38;;;;;;;15.12;65.44;93364.38;5088168;28;20027;-43
2021/04/13 12:24:58;;;;;;;1.00;0.85;;;;;;;14.70;67.47;93365.97;5089529;28;20028;-45
2021/04/13 12:27:26;;;;;;;0.38;0.38;;;;;;;14.95;67.60;93361.69;5087729;28;20039;-46
2021/04/13 12:29:53;;;;;;;1.48;1.38;;;;;;;15.07;67.10;93354.25;5089133;28;20043;-44
2021/04/13 12:32:19;;;;;;;1.33;1.25;;;;;;;15.04;66.41;93358.22;5081384;28;20035;-44
2021/04/13 12:34:53;;;;;;;1.10;1.10;;;;;;;14.97;67.64;93355.53;5067902;28;20496;-47
2021/04/13 12:37:41;;;;;;;0.40;0.40;;;;;;;14.83;67.66;93346.13;5068794;28;20385;-45
2021/04/13 12:40:18;;;;;;;0.52;0.52;;;;;;;14.70;65.89;93344.47;5069004;28;20093;-47